createdAt,value
2023-03-17T00:01:09.782Z,2.20
2023-03-17T00:03:40.774Z,2.60
2023-03-17T00:06:16.677Z,1.98
2023-03-17T00:08:44.007Z,1.98
2023-03-17T00:11:13.738Z,2.35
2023-03-17T00:13:41.711Z,2.13
2023-03-17T00:16:15.764Z,2.35
2023-03-17T00:18:42.503Z,2.45
2023-03-17T00:21:15.050Z,2.00
2023-03-17T00:23:50.714Z,2.58
2023-03-17T00:26:17.882Z,2.38
2023-03-17T00:28:44.792Z,1.90
2023-03-17T00:31:16.862Z,2.42
2023-03-17T00:33:45.496Z,2.15
2023-03-17T00:36:22.587Z,2.50
2023-03-17T00:38:49.758Z,2.20
2023-03-17T00:41:16.275Z,2.40
2023-03-17T00:43:42.988Z,2.50
2023-03-17T00:46:18.760Z,2.40
2023-03-17T00:48:45.943Z,2.30
2023-03-17T00:51:12.880Z,2.20
2023-03-17T00:53:40.601Z,2.25
2023-03-17T00:56:14.840Z,2.13
2023-03-17T00:58:42.152Z,2.42
2023-03-17T01:01:09.228Z,2.67
2023-03-17T01:03:36.294Z,2.30
2023-03-17T01:06:04.762Z,2.17
2023-03-17T01:08:31.663Z,2.15
2023-03-17T01:10:59.463Z,2.55
2023-03-17T01:13:26.393Z,2.25
2023-03-17T01:15:53.370Z,2.38
2023-03-17T01:18:22.623Z,2.58
2023-03-17T01:20:49.872Z,2.60
2023-03-17T01:23:17.653Z,2.20
2023-03-17T01:25:45.366Z,2.45
2023-03-17T01:28:18.101Z,2.33
2023-03-17T01:30:45.312Z,2.15
2023-03-17T01:33:13.115Z,2.50
2023-03-17T01:35:41.718Z,2.22
2023-03-17T01:38:08.768Z,2.50
2023-03-17T01:40:44.205Z,2.10
2023-03-17T01:43:10.669Z,2.13
2023-03-17T01:46:14.861Z,2.50
2023-03-17T01:48:50.335Z,2.10
2023-03-17T01:51:49.011Z,2.00
2023-03-17T01:54:50.611Z,2.13
2023-03-17T01:57:28.485Z,2.20
2023-03-17T02:00:05.794Z,2.72
2023-03-17T02:02:38.930Z,2.08
2023-03-17T02:05:09.354Z,1.80
2023-03-17T02:07:36.044Z,2.47
2023-03-17T02:10:04.113Z,2.15
2023-03-17T02:12:30.603Z,1.95
2023-03-17T02:14:57.560Z,2.35
2023-03-17T02:17:26.815Z,2.42
2023-03-17T02:19:53.678Z,2.08
2023-03-17T02:22:20.586Z,2.35
2023-03-17T02:24:59.461Z,2.00
2023-03-17T02:27:35.534Z,2.30
2023-03-17T02:30:02.977Z,2.42
2023-03-17T02:32:29.490Z,2.10
2023-03-17T02:34:56.156Z,2.20
2023-03-17T02:37:23.012Z,2.20
2023-03-17T02:39:49.495Z,1.73
2023-03-17T02:42:16.057Z,1.85
2023-03-17T02:44:42.714Z,1.98
2023-03-17T02:47:09.620Z,2.10
2023-03-17T02:49:37.648Z,2.17
2023-03-17T02:52:04.836Z,2.10
2023-03-17T02:54:31.755Z,2.17
2023-03-17T02:56:58.369Z,2.45
2023-03-17T02:59:25.190Z,2.13
2023-03-17T03:01:51.888Z,2.33
2023-03-17T03:04:20.288Z,2.00
2023-03-17T03:06:47.663Z,1.80
2023-03-17T03:09:15.394Z,2.00
2023-03-17T03:11:42.680Z,2.08
2023-03-17T03:14:11.107Z,2.03
2023-03-17T03:16:38.404Z,2.08
2023-03-17T03:19:05.673Z,2.08
2023-03-17T03:21:32.634Z,2.10
2023-03-17T03:23:59.272Z,2.13
2023-03-17T03:26:25.775Z,1.83
2023-03-17T03:28:52.290Z,1.83
2023-03-17T03:31:18.850Z,1.40
2023-03-17T03:33:45.846Z,1.73
2023-03-17T03:36:13.440Z,1.50
2023-03-17T03:38:39.945Z,2.13
2023-03-17T03:41:06.440Z,1.85
2023-03-17T03:43:33.097Z,1.90
2023-03-17T03:45:59.738Z,2.08
2023-03-17T03:48:26.645Z,1.90
2023-03-17T03:51:00.893Z,1.90
2023-03-17T03:53:28.411Z,2.13
2023-03-17T03:55:56.022Z,1.85
2023-03-17T03:58:22.893Z,1.88
2023-03-17T04:00:49.698Z,2.15
2023-03-17T04:03:16.582Z,1.90
2023-03-17T04:05:43.267Z,1.80
2023-03-17T04:08:11.131Z,1.95
2023-03-17T04:10:37.647Z,1.85
2023-03-17T04:13:06.907Z,1.85
2023-03-17T04:15:33.701Z,1.88
2023-03-17T04:18:00.134Z,2.30
2023-03-17T04:20:26.638Z,1.95
2023-03-17T04:22:53.056Z,1.90
2023-03-17T04:25:19.711Z,1.90
2023-03-17T04:27:46.261Z,1.90
2023-03-17T04:30:14.275Z,1.63
2023-03-17T04:32:41.766Z,1.55
2023-03-17T04:35:13.244Z,1.67
2023-03-17T04:37:39.754Z,2.00
2023-03-17T04:40:09.929Z,2.28
2023-03-17T04:42:37.095Z,1.90
2023-03-17T04:45:05.191Z,1.58
2023-03-17T04:47:32.159Z,1.92
2023-03-17T04:49:58.774Z,1.83
2023-03-17T04:52:25.299Z,1.95
2023-03-17T04:54:51.819Z,1.73
2023-03-17T04:57:18.256Z,1.80
2023-03-17T04:59:44.787Z,1.90
2023-03-17T05:02:11.688Z,1.80
2023-03-17T05:04:38.375Z,2.00
2023-03-17T05:07:05.088Z,1.80
2023-03-17T05:09:31.591Z,1.88
2023-03-17T05:11:58.076Z,1.90
2023-03-17T05:14:24.720Z,2.20
2023-03-17T05:16:51.208Z,1.85
2023-03-17T05:19:18.392Z,1.80
2023-03-17T05:21:44.902Z,2.10
2023-03-17T05:24:11.732Z,2.00
2023-03-17T05:26:38.259Z,1.50
2023-03-17T05:29:04.789Z,1.73
2023-03-17T05:31:31.714Z,1.80
2023-03-17T05:33:58.861Z,1.70
2023-03-17T05:36:25.547Z,1.90
2023-03-17T05:38:52.404Z,2.03
2023-03-17T05:41:19.165Z,2.10
2023-03-17T05:43:46.128Z,2.10
2023-03-17T05:46:12.966Z,1.70
2023-03-17T05:48:39.590Z,1.52
2023-03-17T05:51:06.555Z,2.00
2023-03-17T05:53:35.987Z,1.88
2023-03-17T05:56:03.221Z,1.73
2023-03-17T05:58:29.979Z,2.00
2023-03-17T06:00:56.982Z,2.20
2023-03-17T06:03:23.467Z,1.38
2023-03-17T06:05:49.958Z,2.08
2023-03-17T06:08:16.955Z,1.65
2023-03-17T06:10:43.440Z,2.05
2023-03-17T06:13:10.931Z,1.83
2023-03-17T06:15:37.854Z,1.90
2023-03-17T06:18:05.644Z,2.13
2023-03-17T06:20:33.014Z,2.58
2023-03-17T06:23:04.780Z,2.10
2023-03-17T06:25:35.441Z,1.90
2023-03-17T06:28:03.805Z,1.90
2023-03-17T06:30:32.738Z,1.90
2023-03-17T06:33:00.208Z,2.20
2023-03-17T06:35:27.444Z,2.00
2023-03-17T06:37:54.735Z,2.50
2023-03-17T06:40:21.347Z,2.13
2023-03-17T06:42:48.142Z,2.40
2023-03-17T06:45:15.523Z,2.20
2023-03-17T06:47:42.056Z,2.30
2023-03-17T06:50:09.812Z,2.22
2023-03-17T06:52:36.909Z,2.17
2023-03-17T06:55:04.386Z,1.95
2023-03-17T06:57:31.689Z,2.10
2023-03-17T06:59:58.216Z,2.00
2023-03-17T07:02:24.962Z,2.22
2023-03-17T07:04:52.435Z,2.08
2023-03-17T07:07:20.788Z,2.20
2023-03-17T07:09:47.841Z,2.58
2023-03-17T07:12:14.607Z,2.00
2023-03-17T07:14:41.685Z,2.20
2023-03-17T07:17:12.856Z,1.95
2023-03-17T07:22:06.130Z,2.40
2023-03-17T07:24:32.883Z,2.50
2023-03-17T07:26:59.499Z,2.40
2023-03-17T07:29:27.419Z,2.38
2023-03-17T07:31:54.077Z,2.80
2023-03-17T07:34:20.636Z,2.50
2023-03-17T07:36:47.066Z,2.17
2023-03-17T07:39:13.495Z,2.42
2023-03-17T07:41:40.062Z,2.55
2023-03-17T07:44:06.698Z,2.72
2023-03-17T07:46:33.183Z,2.55
2023-03-17T07:48:59.802Z,2.47
2023-03-17T07:51:28.038Z,3.03
2023-03-17T07:54:03.081Z,2.72
2023-03-17T07:56:31.114Z,2.50
2023-03-17T07:58:58.958Z,3.00
2023-03-17T08:01:28.915Z,2.45
2023-03-17T08:03:56.612Z,2.63
2023-03-17T08:06:25.402Z,2.58
2023-03-17T08:08:53.191Z,3.13
2023-03-17T08:11:20.363Z,2.67
2023-03-17T08:13:47.819Z,2.78
2023-03-17T08:16:14.412Z,2.65
2023-03-17T08:18:41.183Z,2.78
2023-03-17T08:21:07.874Z,2.50
2023-03-17T08:23:34.579Z,2.80
2023-03-17T08:26:03.339Z,2.53
2023-03-17T08:28:30.615Z,2.70
2023-03-17T08:31:18.948Z,2.58
2023-03-17T08:33:48.566Z,2.67
2023-03-17T08:36:16.441Z,3.05
2023-03-17T08:38:44.863Z,2.40
2023-03-17T08:41:14.304Z,2.72
2023-03-17T08:43:42.771Z,2.70
2023-03-17T08:46:30.950Z,2.85
2023-03-17T08:48:58.562Z,2.50
2023-03-17T08:51:28.485Z,2.33
2023-03-17T08:53:55.901Z,2.75
2023-03-17T08:56:22.707Z,2.75
2023-03-17T08:58:50.684Z,2.60
2023-03-17T09:01:17.789Z,2.92
2023-03-17T09:03:45.537Z,3.00
2023-03-17T09:06:13.618Z,2.45
2023-03-17T09:08:44.936Z,2.22
2023-03-17T09:11:16.860Z,2.90
2023-03-17T09:13:46.396Z,2.55
2023-03-17T09:16:18.029Z,2.53
2023-03-17T09:18:46.440Z,2.33
2023-03-17T09:21:14.438Z,2.92
2023-03-17T09:23:41.563Z,2.88
2023-03-17T09:26:09.043Z,2.45
2023-03-17T09:28:43.769Z,2.60
2023-03-17T09:31:33.378Z,2.70
2023-03-17T09:34:00.474Z,2.85
2023-03-17T09:36:27.015Z,2.80
2023-03-17T09:38:53.698Z,2.78
2023-03-17T09:41:43.547Z,3.13
2023-03-17T09:44:33.556Z,2.70
2023-03-17T09:47:17.321Z,3.00
2023-03-17T09:49:47.002Z,3.22
2023-03-17T09:52:18.766Z,2.90
2023-03-17T09:54:49.555Z,3.20
2023-03-17T09:59:48.063Z,2.80
2023-03-17T10:02:19.629Z,3.42
2023-03-17T10:04:48.003Z,3.33
2023-03-17T10:07:21.192Z,3.38
2023-03-17T10:10:01.409Z,3.22
2023-03-17T10:12:38.601Z,3.17
2023-03-17T10:15:15.822Z,3.50
2023-03-17T10:17:42.652Z,3.30
2023-03-17T10:20:21.768Z,2.80
2023-03-17T10:22:53.580Z,2.88
2023-03-17T10:25:34.678Z,3.47
2023-03-17T10:28:01.361Z,3.10
2023-03-17T10:30:30.492Z,3.30
2023-03-17T10:33:01.933Z,3.13
2023-03-17T10:35:30.378Z,3.00
2023-03-17T10:38:13.560Z,2.85
2023-03-17T10:40:40.444Z,2.95
2023-03-17T10:43:08.710Z,2.78
2023-03-17T10:45:40.948Z,2.90
2023-03-17T10:48:10.716Z,2.97
2023-03-17T10:50:39.780Z,3.20
2023-03-17T10:53:20.359Z,3.00
2023-03-17T10:55:52.375Z,2.90
2023-03-17T10:58:22.811Z,2.85
2023-03-17T11:01:05.681Z,2.97
2023-03-17T11:03:36.040Z,3.10
2023-03-17T11:06:10.141Z,3.22
2023-03-17T11:08:42.464Z,2.80
2023-03-17T11:11:23.147Z,3.13
2023-03-17T11:13:49.772Z,3.13
2023-03-17T11:16:24.762Z,3.10
2023-03-17T11:18:56.510Z,2.90
2023-03-17T11:21:46.728Z,3.00
2023-03-17T11:24:21.338Z,3.40
2023-03-17T11:27:02.850Z,2.95
2023-03-17T11:29:57.614Z,3.20
2023-03-17T11:32:32.294Z,3.08
2023-03-17T11:35:20.910Z,2.97
2023-03-17T11:38:21.495Z,2.88
2023-03-17T11:41:17.273Z,2.85
2023-03-17T11:44:08.557Z,3.20
2023-03-17T11:46:40.807Z,3.22
2023-03-17T11:49:14.798Z,3.30
2023-03-17T11:51:45.334Z,3.10
2023-03-17T11:57:07.959Z,3.15
2023-03-17T11:59:52.002Z,3.17
2023-03-17T12:02:30.640Z,3.90
2023-03-17T12:05:06.356Z,3.60
2023-03-17T12:07:39.032Z,3.42
2023-03-17T12:10:23.939Z,3.10
2023-03-17T12:12:59.640Z,3.22
2023-03-17T12:15:33.721Z,3.25
2023-03-17T12:18:17.609Z,3.00
2023-03-17T12:20:54.486Z,3.20
2023-03-17T12:23:49.613Z,3.42
2023-03-17T12:26:21.101Z,3.25
2023-03-17T12:29:32.317Z,3.22
2023-03-17T12:32:05.750Z,3.20
2023-03-17T12:34:45.985Z,3.38
2023-03-17T12:37:12.472Z,4.00
2023-03-17T12:39:45.728Z,3.45
2023-03-17T12:42:33.660Z,3.42
2023-03-17T12:45:18.915Z,3.30
2023-03-17T12:47:53.608Z,3.30
2023-03-17T12:50:43.566Z,3.35
2023-03-17T12:53:28.447Z,3.65
2023-03-17T12:55:59.136Z,3.75
2023-03-17T12:58:48.790Z,3.55
2023-03-17T13:01:39.866Z,3.75
2023-03-17T13:04:15.354Z,3.55
2023-03-17T13:07:09.060Z,3.50
2023-03-17T13:09:53.848Z,3.75
2023-03-17T13:12:57.126Z,3.53
2023-03-17T13:15:39.709Z,4.15
2023-03-17T13:18:12.176Z,4.20
2023-03-17T13:20:43.256Z,4.03
2023-03-17T13:23:16.008Z,3.67
2023-03-17T13:25:43.954Z,4.25
2023-03-17T13:28:13.491Z,3.65
2023-03-17T13:30:39.873Z,3.85
2023-03-17T13:33:12.072Z,3.78
2023-03-17T13:36:19.382Z,3.30
2023-03-17T13:39:19.756Z,3.85
2023-03-17T13:41:56.570Z,3.60
2023-03-17T13:44:39.386Z,3.83
2023-03-17T13:47:25.282Z,3.97
2023-03-17T13:49:59.628Z,4.30
2023-03-17T13:52:31.846Z,3.67
2023-03-17T13:55:05.318Z,3.97
2023-03-17T13:57:37.706Z,4.15
2023-03-17T14:00:16.257Z,3.97
2023-03-17T14:02:44.585Z,3.45
2023-03-17T14:05:26.405Z,3.90
2023-03-17T14:07:58.296Z,4.30
2023-03-17T14:10:28.524Z,3.92
2023-03-17T14:13:11.536Z,3.67
2023-03-17T14:18:20.686Z,4.05
2023-03-17T14:20:55.245Z,3.90
2023-03-17T14:23:23.888Z,4.00
2023-03-17T14:25:51.417Z,3.95
2023-03-17T14:28:25.372Z,4.28
2023-03-17T14:30:56.863Z,3.80
2023-03-17T14:33:26.796Z,4.03
2023-03-17T14:35:56.684Z,4.18
2023-03-17T14:38:32.517Z,4.20
2023-03-17T14:41:06.723Z,3.90
2023-03-17T14:43:35.668Z,3.90
2023-03-17T14:46:05.179Z,4.10
2023-03-17T14:48:35.467Z,3.30
2023-03-17T14:51:15.473Z,3.88
2023-03-17T14:53:46.239Z,3.88
2023-03-17T14:56:13.722Z,3.75
2023-03-17T14:58:45.075Z,3.88
2023-03-17T15:01:39.777Z,4.28
2023-03-17T15:04:15.724Z,3.92
2023-03-17T15:06:56.533Z,3.80
2023-03-17T15:09:26.449Z,4.10
2023-03-17T15:12:02.917Z,3.65
2023-03-17T15:14:33.500Z,4.43
2023-03-17T15:17:03.912Z,4.00
2023-03-17T15:22:00.536Z,3.88
2023-03-17T15:24:40.688Z,3.95
2023-03-17T15:27:16.255Z,3.63
2023-03-17T15:29:43.248Z,3.80
2023-03-17T15:32:21.750Z,3.90
2023-03-17T15:34:49.726Z,3.88
2023-03-17T15:37:26.443Z,3.88
2023-03-17T15:42:22.675Z,3.88
2023-03-17T15:44:49.311Z,3.90
2023-03-17T15:47:18.422Z,3.75
2023-03-17T15:49:46.027Z,4.28
2023-03-17T15:52:21.754Z,3.70
2023-03-17T15:54:49.771Z,3.95
2023-03-17T15:57:16.478Z,3.67
2023-03-17T15:59:43.584Z,3.67
2023-03-17T16:02:25.604Z,4.13
2023-03-17T16:04:52.777Z,3.88
2023-03-17T16:07:19.513Z,5.13
2023-03-17T16:09:45.981Z,4.10
2023-03-17T16:12:13.302Z,4.32
2023-03-17T16:14:40.898Z,4.45
2023-03-17T16:17:14.864Z,3.95
2023-03-17T16:19:41.423Z,3.63
2023-03-17T16:22:34.355Z,3.72
2023-03-17T16:25:01.509Z,3.65
2023-03-17T16:27:28.050Z,3.85
2023-03-17T16:29:54.467Z,3.75
2023-03-17T16:32:20.999Z,3.72
2023-03-17T16:34:47.898Z,4.05
2023-03-17T16:37:17.105Z,4.10
2023-03-17T16:39:43.626Z,4.18
2023-03-17T16:42:23.755Z,4.38
2023-03-17T16:44:50.827Z,4.25
2023-03-17T16:47:17.431Z,4.60
2023-03-17T16:49:43.954Z,4.63
2023-03-17T16:52:12.088Z,4.70
2023-03-17T16:54:38.738Z,4.93
2023-03-17T16:57:07.733Z,4.80
2023-03-17T16:59:34.826Z,5.47
2023-03-17T17:02:01.912Z,4.38
2023-03-17T17:04:28.662Z,5.25
2023-03-17T17:06:56.437Z,4.60
2023-03-17T17:09:23.093Z,5.38
2023-03-17T17:11:49.539Z,5.07
2023-03-17T17:14:16.083Z,5.93
2023-03-17T17:16:42.731Z,4.85
2023-03-17T17:19:16.683Z,5.65
2023-03-17T17:21:44.420Z,5.88
2023-03-17T17:24:14.284Z,6.00
2023-03-17T17:26:41.489Z,5.65
2023-03-17T17:29:07.991Z,6.35
2023-03-17T17:31:34.612Z,6.32
2023-03-17T17:34:01.333Z,6.40
2023-03-17T17:36:28.057Z,5.70
2023-03-17T17:38:54.640Z,5.50
2023-03-17T17:41:21.664Z,5.38
2023-03-17T17:43:48.598Z,5.18
2023-03-17T17:46:18.818Z,5.85
2023-03-17T17:48:45.763Z,7.88
2023-03-17T17:51:12.505Z,8.27
2023-03-17T17:53:39.287Z,8.25
2023-03-17T17:56:06.833Z,7.25
2023-03-17T17:58:33.423Z,7.35
2023-03-17T18:01:00.079Z,7.10
2023-03-17T18:03:26.922Z,7.22
2023-03-17T18:05:57.607Z,6.32
2023-03-17T18:08:25.662Z,6.90
2023-03-17T18:10:52.758Z,7.53
2023-03-17T18:13:19.328Z,7.90
2023-03-17T18:15:46.102Z,7.50
2023-03-17T18:18:12.666Z,8.15
2023-03-17T18:20:39.366Z,7.15
2023-03-17T18:23:06.121Z,7.55
2023-03-17T18:25:32.652Z,7.30
2023-03-17T18:28:01.265Z,6.97
2023-03-17T18:30:30.908Z,7.20
2023-03-17T18:33:03.769Z,6.80
2023-03-17T18:35:30.936Z,7.60
2023-03-17T18:37:57.917Z,6.82
2023-03-17T18:40:26.031Z,6.97
2023-03-17T18:42:52.669Z,6.72
2023-03-17T18:45:19.590Z,8.02
2023-03-17T18:47:46.037Z,7.38
2023-03-17T18:50:14.902Z,6.93
2023-03-17T18:52:42.835Z,6.88
2023-03-17T18:55:11.254Z,7.10
2023-03-17T18:57:38.038Z,7.97
2023-03-17T19:00:06.366Z,7.25
2023-03-17T19:02:33.372Z,9.02
2023-03-17T19:05:00.222Z,13.32
2023-03-17T19:07:26.765Z,9.55
2023-03-17T19:09:53.196Z,8.80
2023-03-17T19:12:20.343Z,8.65
2023-03-17T19:14:48.184Z,8.60
2023-03-17T19:17:14.627Z,8.68
2023-03-17T19:19:41.476Z,8.40
2023-03-17T19:22:07.977Z,7.93
2023-03-17T19:24:36.119Z,9.18
2023-03-17T19:27:02.665Z,11.65
2023-03-17T19:29:29.205Z,10.25
2023-03-17T19:31:55.723Z,9.65
2023-03-17T19:34:23.290Z,9.18
2023-03-17T19:36:49.979Z,9.68
2023-03-17T19:39:16.910Z,10.20
2023-03-17T19:41:43.431Z,11.02
2023-03-17T19:44:10.950Z,10.75
2023-03-17T19:46:37.875Z,8.15
2023-03-17T19:49:05.384Z,8.88
2023-03-17T19:51:33.010Z,8.50
2023-03-17T19:54:00.596Z,7.20
2023-03-17T19:56:27.961Z,7.15
2023-03-17T19:58:55.459Z,5.72
2023-03-17T20:01:22.827Z,5.93
2023-03-17T20:03:49.628Z,5.38
2023-03-17T20:06:16.219Z,5.63
2023-03-17T20:08:43.269Z,4.75
2023-03-17T20:11:11.538Z,5.10
2023-03-17T20:13:39.076Z,4.30
2023-03-17T20:16:06.749Z,4.40
2023-03-17T20:18:33.649Z,4.57
2023-03-17T20:21:00.647Z,3.83
2023-03-17T20:23:27.300Z,4.22
2023-03-17T20:25:53.983Z,4.18
2023-03-17T20:28:21.507Z,4.30
2023-03-17T20:30:49.377Z,4.38
2023-03-17T20:33:17.126Z,4.45
2023-03-17T20:35:46.728Z,5.13
2023-03-17T20:38:14.714Z,4.10
2023-03-17T20:40:42.012Z,4.55
2023-03-17T20:43:09.385Z,4.70
2023-03-17T20:45:36.894Z,4.15
2023-03-17T20:48:04.987Z,4.90
2023-03-17T20:50:32.875Z,4.90
2023-03-17T20:52:59.829Z,4.65
2023-03-17T20:55:26.491Z,5.40
2023-03-17T20:57:52.924Z,5.18
2023-03-17T21:00:21.216Z,4.85
2023-03-17T21:02:50.200Z,5.00
2023-03-17T21:05:20.755Z,4.57
2023-03-17T21:07:48.640Z,4.93
2023-03-17T21:10:24.454Z,5.10
2023-03-17T21:12:50.918Z,5.15
2023-03-17T21:15:18.144Z,5.30
2023-03-17T21:17:44.581Z,5.43
2023-03-17T21:20:12.345Z,5.65
2023-03-17T21:22:40.009Z,6.00
2023-03-17T21:25:08.740Z,6.93
2023-03-17T21:27:37.847Z,5.65
2023-03-17T21:30:11.986Z,5.53
2023-03-17T21:32:39.236Z,5.63
2023-03-17T21:35:07.833Z,5.22
2023-03-17T21:37:35.423Z,5.53
2023-03-17T21:40:02.111Z,5.00
2023-03-17T21:42:29.125Z,5.72
2023-03-17T21:44:55.869Z,5.60
2023-03-17T21:47:22.372Z,5.97
2023-03-17T21:49:48.863Z,5.50
2023-03-17T21:52:15.513Z,5.18
2023-03-17T21:54:42.428Z,4.93
2023-03-17T21:57:11.759Z,5.35
2023-03-17T21:59:38.676Z,4.90
2023-03-17T22:02:05.392Z,6.18
2023-03-17T22:04:32.260Z,5.50
2023-03-17T22:06:59.009Z,5.00
2023-03-17T22:09:26.227Z,5.57
2023-03-17T22:11:52.704Z,5.07
2023-03-17T22:14:20.638Z,5.20
2023-03-17T22:16:48.851Z,5.40
2023-03-17T22:19:18.196Z,5.53
2023-03-17T22:21:45.751Z,5.15
2023-03-17T22:24:12.684Z,5.30
2023-03-17T22:26:39.234Z,6.00
2023-03-17T22:29:05.746Z,5.50
2023-03-17T22:31:32.484Z,5.22
2023-03-17T22:33:59.586Z,5.57
2023-03-17T22:36:27.137Z,5.88
2023-03-17T22:38:54.099Z,5.90
2023-03-17T22:41:29.490Z,6.20
2023-03-17T22:43:57.440Z,5.07
2023-03-17T22:46:24.692Z,5.10
2023-03-17T22:48:51.783Z,6.20
2023-03-17T22:51:21.383Z,5.30
2023-03-17T22:53:49.136Z,5.50
2023-03-17T22:56:17.208Z,5.47
2023-03-17T22:58:44.540Z,5.88
2023-03-17T23:01:12.445Z,5.82
2023-03-17T23:03:39.594Z,5.50
2023-03-17T23:06:07.513Z,6.65
2023-03-17T23:08:36.051Z,6.07
2023-03-17T23:11:05.905Z,6.35
2023-03-17T23:13:33.143Z,5.72
2023-03-17T23:15:59.908Z,6.40
2023-03-17T23:18:26.573Z,6.05
2023-03-17T23:20:53.419Z,6.38
2023-03-17T23:23:20.199Z,5.85
2023-03-17T23:25:47.036Z,6.32
2023-03-17T23:28:15.487Z,6.30
2023-03-17T23:30:43.874Z,6.07
2023-03-17T23:33:10.573Z,6.45
2023-03-17T23:35:37.368Z,5.95
2023-03-17T23:38:04.326Z,5.90
2023-03-17T23:40:31.944Z,5.88
2023-03-17T23:42:58.660Z,6.22
2023-03-17T23:45:25.293Z,6.15
2023-03-17T23:47:52.166Z,6.13
2023-03-17T23:50:19.911Z,6.30
2023-03-17T23:52:47.132Z,6.63
2023-03-17T23:55:14.482Z,6.05
2023-03-17T23:57:41.518Z,7.20
